createdAt,value
2022-09-12T00:02:05.565Z,20.63
2022-09-12T00:04:34.280Z,19.77
2022-09-12T00:07:00.754Z,20.48
2022-09-12T00:09:27.144Z,20.27
2022-09-12T00:11:53.516Z,21.13
2022-09-12T00:14:20.120Z,20.27
2022-09-12T00:16:49.571Z,20.65
2022-09-12T00:19:15.984Z,19.77
2022-09-12T00:21:49.729Z,19.23
2022-09-12T00:24:16.064Z,19.50
2022-09-12T00:26:42.456Z,20.25
2022-09-12T00:29:15.147Z,19.93
2022-09-12T00:31:41.623Z,20.55
2022-09-12T00:34:09.305Z,19.65
2022-09-12T00:36:36.557Z,21.17
2022-09-12T00:39:06.987Z,22.15
2022-09-12T00:41:36.867Z,21.05
2022-09-12T00:44:12.273Z,21.50
2022-09-12T00:46:46.873Z,21.95
2022-09-12T00:49:22.223Z,20.00
2022-09-12T00:51:55.843Z,20.52
2022-09-12T00:54:26.952Z,20.55
2022-09-12T00:56:58.898Z,21.30
2022-09-12T00:59:29.535Z,22.42
2022-09-12T01:01:56.384Z,20.40
2022-09-12T01:04:26.666Z,19.80
2022-09-12T01:06:55.823Z,22.10
2022-09-12T01:09:23.408Z,20.60
2022-09-12T01:11:52.391Z,22.13
2022-09-12T01:14:20.570Z,21.23
2022-09-12T01:16:49.545Z,21.08
2022-09-12T01:19:29.307Z,20.27
2022-09-12T01:22:14.550Z,19.67
2022-09-12T01:24:53.134Z,20.02
2022-09-12T01:27:29.227Z,20.40
2022-09-12T01:30:20.790Z,20.02
2022-09-12T01:33:47.718Z,21.35
2022-09-12T01:36:34.959Z,20.30
2022-09-12T01:39:09.633Z,20.65
2022-09-12T01:41:54.578Z,20.15
2022-09-12T01:44:33.513Z,20.27
2022-09-12T01:47:09.333Z,20.27
2022-09-12T01:49:46.237Z,19.23
2022-09-12T01:52:33.328Z,18.83
2022-09-12T01:55:24.051Z,19.63
2022-09-12T01:57:57.582Z,18.25
2022-09-12T02:00:24.733Z,19.80
2022-09-12T02:02:57.937Z,18.70
2022-09-12T02:05:42.063Z,19.17
2022-09-12T02:08:14.366Z,18.95
2022-09-12T02:10:55.987Z,19.35
2022-09-12T02:13:28.168Z,19.33
2022-09-12T02:16:03.571Z,20.70
2022-09-12T02:18:33.617Z,19.80
2022-09-12T02:21:01.710Z,19.90
2022-09-12T02:23:31.377Z,18.77
2022-09-12T02:26:05.915Z,18.67
2022-09-12T02:28:38.186Z,18.42
2022-09-12T02:31:27.118Z,18.55
2022-09-12T02:34:10.394Z,18.30
2022-09-12T02:36:49.932Z,19.90
2022-09-12T02:39:20.132Z,19.45
2022-09-12T02:41:50.662Z,19.98
2022-09-12T02:44:17.424Z,20.40
2022-09-12T02:46:51.074Z,17.73
2022-09-12T02:49:17.663Z,18.77
2022-09-12T02:51:45.392Z,20.75
2022-09-12T02:54:16.589Z,20.05
2022-09-12T02:56:47.224Z,19.02
2022-09-12T02:59:18.133Z,18.75
2022-09-12T03:02:18.755Z,20.75
2022-09-12T03:05:03.955Z,20.85
2022-09-12T03:07:54.408Z,19.02
2022-09-12T03:10:35.953Z,17.98
2022-09-12T03:13:40.296Z,19.60
2022-09-12T03:16:18.806Z,18.88
2022-09-12T03:19:16.724Z,19.88
2022-09-12T03:22:00.838Z,17.83
2022-09-12T03:24:35.865Z,19.17
2022-09-12T03:27:13.668Z,20.52
2022-09-12T03:29:42.091Z,20.20
2022-09-12T03:32:08.436Z,19.25
2022-09-12T03:34:34.843Z,18.77
2022-09-12T03:37:01.551Z,19.77
2022-09-12T03:39:28.258Z,18.75
2022-09-12T03:41:55.707Z,19.27
2022-09-12T03:44:22.516Z,18.90
2022-09-12T03:46:48.994Z,18.50
2022-09-12T03:49:15.543Z,16.90
2022-09-12T03:51:43.203Z,17.65
2022-09-12T03:54:10.511Z,18.95
2022-09-12T03:56:37.323Z,19.42
2022-09-12T03:59:07.279Z,19.63
2022-09-12T04:01:34.424Z,18.15
2022-09-12T04:04:04.042Z,21.67
2022-09-12T04:06:31.210Z,20.02
2022-09-12T04:08:59.033Z,19.30
2022-09-12T04:11:26.284Z,20.63
2022-09-12T04:13:52.741Z,20.55
2022-09-12T04:16:19.957Z,21.33
2022-09-12T04:18:55.840Z,20.30
2022-09-12T04:21:22.293Z,20.65
2022-09-12T04:23:50.444Z,20.87
2022-09-12T04:26:18.010Z,21.42
2022-09-12T04:28:46.467Z,20.98
2022-09-12T04:31:19.932Z,20.05
2022-09-12T04:33:46.923Z,21.13
2022-09-12T04:36:17.346Z,19.52
2022-09-12T04:38:45.475Z,21.48
2022-09-12T04:41:14.962Z,21.05
2022-09-12T04:43:43.984Z,20.95
2022-09-12T04:46:11.555Z,22.00
2022-09-12T04:48:41.891Z,21.15
2022-09-12T04:51:18.856Z,21.75
2022-09-12T04:53:52.061Z,20.67
2022-09-12T04:56:20.454Z,21.98
2022-09-12T04:58:46.954Z,20.90
2022-09-12T05:01:21.829Z,22.27
2022-09-12T05:03:49.579Z,20.80
2022-09-12T05:06:19.182Z,21.10
2022-09-12T05:08:45.755Z,21.20
2022-09-12T05:11:24.758Z,22.45
2022-09-12T05:13:54.358Z,22.00
2022-09-12T05:16:25.612Z,21.38
2022-09-12T05:18:53.164Z,20.80
2022-09-12T05:21:25.351Z,20.92
2022-09-12T05:23:53.947Z,21.20
2022-09-12T05:26:22.909Z,21.13
2022-09-12T05:28:52.458Z,22.10
2022-09-12T05:31:27.809Z,21.88
2022-09-12T05:33:55.933Z,21.23
2022-09-12T05:36:29.254Z,21.13
2022-09-12T05:38:57.649Z,19.92
2022-09-12T05:41:27.543Z,21.10
2022-09-12T05:43:56.512Z,22.70
2022-09-12T05:46:27.965Z,20.83
2022-09-12T05:48:56.924Z,20.98
2022-09-12T05:51:28.605Z,22.67
2022-09-12T05:54:00.491Z,21.77
2022-09-12T05:56:33.492Z,22.15
2022-09-12T05:59:04.818Z,21.20
2022-09-12T06:01:35.306Z,22.50
2022-09-12T06:04:05.668Z,21.73
2022-09-12T06:06:36.318Z,21.35
2022-09-12T06:09:06.333Z,22.13
2022-09-12T06:11:37.980Z,23.52
2022-09-12T06:14:04.863Z,23.60
2022-09-12T06:16:36.011Z,22.52
2022-09-12T06:19:15.381Z,23.08
2022-09-12T06:21:42.641Z,22.60
2022-09-12T06:24:11.319Z,23.33
2022-09-12T06:26:38.367Z,22.95
2022-09-12T06:29:05.261Z,22.27
2022-09-12T06:31:35.572Z,21.73
2022-09-12T06:34:11.296Z,22.90
2022-09-12T06:36:41.123Z,22.25
2022-09-12T06:39:12.557Z,21.33
2022-09-12T06:41:43.502Z,22.23
2022-09-12T06:44:16.589Z,22.88
2022-09-12T06:46:44.271Z,22.85
2022-09-12T06:49:15.119Z,22.13
2022-09-12T06:51:45.220Z,21.50
2022-09-12T06:54:17.362Z,22.40
2022-09-12T06:56:45.083Z,21.35
2022-09-12T06:59:12.713Z,21.95
2022-09-12T07:01:42.080Z,21.92
2022-09-12T07:04:11.819Z,21.92
2022-09-12T07:06:40.966Z,21.10
2022-09-12T07:09:11.742Z,21.30
2022-09-12T07:11:41.266Z,21.77
2022-09-12T07:14:10.152Z,23.45
2022-09-12T07:16:37.839Z,21.45
2022-09-12T07:19:08.857Z,22.90
2022-09-12T07:21:43.470Z,22.40
2022-09-12T07:24:14.822Z,21.52
2022-09-12T07:26:43.034Z,21.02
2022-09-12T07:32:05.534Z,22.05
2022-09-12T07:34:32.860Z,21.75
2022-09-12T07:36:59.929Z,21.17
2022-09-12T07:39:26.531Z,22.27
2022-09-12T07:41:52.950Z,21.73
2022-09-12T07:44:19.870Z,20.85
2022-09-12T07:46:49.079Z,25.65
2022-09-12T07:49:15.820Z,20.08
2022-09-12T07:51:42.251Z,20.80
2022-09-12T07:54:09.600Z,21.63
2022-09-12T07:56:39.167Z,21.77
2022-09-12T07:59:06.149Z,21.05
2022-09-12T08:01:36.912Z,19.60
2022-09-12T08:04:05.085Z,19.23
2022-09-12T08:06:36.233Z,21.52
2022-09-12T08:09:04.307Z,19.77
2022-09-12T08:11:31.630Z,21.25
2022-09-12T08:13:59.414Z,19.88
2022-09-12T08:16:29.928Z,20.70
2022-09-12T08:18:57.893Z,20.60
2022-09-12T08:21:34.563Z,21.15
2022-09-12T08:24:04.449Z,19.67
2022-09-12T08:26:34.290Z,20.90
2022-09-12T08:29:02.063Z,20.52
2022-09-12T08:31:28.990Z,21.00
2022-09-12T08:33:57.301Z,20.92
2022-09-12T08:36:29.768Z,20.27
2022-09-12T08:39:06.391Z,19.80
2022-09-12T08:41:43.439Z,20.20
2022-09-12T08:44:35.751Z,20.00
2022-09-12T08:47:11.169Z,20.35
2022-09-12T08:49:59.031Z,20.42
2022-09-12T08:52:49.854Z,19.70
2022-09-12T08:55:35.529Z,19.88
2022-09-12T08:58:11.925Z,20.42
2022-09-12T09:00:49.909Z,21.13
2022-09-12T09:03:44.103Z,20.98
2022-09-12T09:06:26.514Z,18.40
2022-09-12T09:08:55.952Z,20.40
2022-09-12T09:11:48.570Z,20.55
2022-09-12T09:14:53.167Z,19.70
2022-09-12T09:17:44.379Z,20.92
2022-09-12T09:20:42.424Z,20.33
2022-09-12T09:23:17.518Z,20.00
2022-09-12T09:26:09.669Z,20.25
2022-09-12T09:28:36.024Z,20.33
2022-09-12T09:31:04.012Z,17.88
2022-09-12T09:33:35.598Z,18.63
2022-09-12T09:36:16.919Z,19.27
2022-09-12T09:39:00.046Z,18.83
2022-09-12T09:41:55.493Z,20.25
2022-09-12T09:44:22.137Z,18.83
2022-09-12T09:46:54.161Z,19.38
2022-09-12T09:49:21.440Z,19.25
2022-09-12T09:51:48.807Z,18.83
2022-09-12T09:54:44.624Z,18.40
2022-09-12T09:57:42.026Z,19.27
2022-09-12T10:00:35.096Z,18.42
2022-09-12T10:03:13.500Z,19.33
2022-09-12T10:05:52.485Z,18.77
2022-09-12T10:08:26.359Z,17.35
2022-09-12T10:11:18.852Z,18.55
2022-09-12T10:13:54.694Z,17.10
2022-09-12T10:16:47.972Z,17.02
2022-09-12T10:19:26.242Z,16.30
2022-09-12T10:21:58.115Z,17.15
2022-09-12T10:24:29.517Z,13.93
2022-09-12T10:27:15.690Z,14.27
2022-09-12T10:29:55.330Z,14.38
2022-09-12T10:32:31.057Z,14.10
2022-09-12T10:35:02.326Z,12.85
2022-09-12T10:37:41.233Z,13.35
2022-09-12T10:40:29.845Z,12.73
2022-09-12T10:43:00.407Z,10.75
2022-09-12T10:45:36.394Z,9.05
2022-09-12T10:48:34.255Z,10.55
2022-09-12T10:51:01.489Z,10.37
2022-09-12T10:53:48.287Z,10.05
2022-09-12T10:56:21.445Z,9.48
2022-09-12T10:59:13.971Z,9.38
2022-09-12T11:01:51.006Z,8.93
2022-09-12T11:04:30.522Z,7.88
2022-09-12T11:07:26.222Z,8.50
2022-09-12T11:10:02.358Z,9.85
2022-09-12T11:12:38.852Z,7.55
2022-09-12T11:15:36.541Z,7.70
2022-09-12T11:18:20.440Z,8.52
2022-09-12T11:20:57.535Z,8.38
2022-09-12T11:23:46.325Z,6.88
2022-09-12T11:26:29.894Z,7.60
2022-09-12T11:29:30.445Z,6.45
2022-09-12T11:32:26.776Z,7.60
2022-09-12T11:35:17.591Z,8.15
2022-09-12T11:38:00.326Z,6.88
2022-09-12T11:40:34.042Z,6.40
2022-09-12T11:43:42.974Z,5.93
2022-09-12T11:48:57.914Z,7.50
2022-09-12T11:52:07.994Z,5.97
2022-09-12T11:54:53.927Z,6.25
2022-09-12T11:57:37.532Z,5.85
2022-09-12T12:00:18.178Z,5.72
2022-09-12T12:03:09.658Z,4.93
2022-09-12T12:05:54.395Z,5.50
2022-09-12T12:08:23.436Z,4.45
2022-09-12T12:10:56.546Z,4.78
2022-09-12T12:13:35.491Z,4.60
2022-09-12T12:16:15.110Z,5.35
2022-09-12T12:18:43.635Z,5.95
2022-09-12T12:21:33.062Z,4.97
2022-09-12T12:24:08.693Z,4.53
2022-09-12T12:26:41.066Z,4.57
2022-09-12T12:29:17.443Z,5.25
2022-09-12T12:31:59.977Z,4.45
2022-09-12T12:34:29.997Z,3.95
2022-09-12T12:37:07.179Z,4.20
2022-09-12T12:39:35.162Z,3.53
2022-09-12T12:42:03.192Z,3.53
2022-09-12T12:44:49.398Z,3.45
2022-09-12T12:47:47.668Z,3.30
2022-09-12T12:50:19.398Z,3.35
2022-09-12T12:52:56.201Z,2.97
2022-09-12T12:57:58.632Z,3.40
2022-09-12T13:00:25.409Z,3.30
2022-09-12T13:03:07.061Z,3.75
2022-09-12T13:06:00.491Z,3.42
2022-09-12T13:08:31.653Z,3.38
2022-09-12T13:11:02.070Z,3.88
2022-09-12T13:13:37.627Z,3.17
2022-09-12T13:16:05.515Z,3.55
2022-09-12T13:18:46.507Z,3.78
2022-09-12T13:21:18.306Z,3.50
2022-09-12T13:24:01.031Z,3.50
2022-09-12T13:26:27.605Z,4.55
2022-09-12T13:29:24.313Z,4.10
2022-09-12T13:31:59.849Z,4.70
2022-09-12T13:34:33.824Z,4.25
2022-09-12T13:37:28.185Z,4.50
2022-09-12T13:40:43.227Z,4.03
2022-09-12T13:43:15.905Z,3.67
2022-09-12T13:45:45.869Z,3.75
2022-09-12T13:48:20.565Z,3.50
2022-09-12T13:50:58.286Z,4.00
2022-09-12T13:53:29.691Z,4.00
2022-09-12T13:56:01.014Z,3.90
2022-09-12T13:58:33.617Z,4.13
2022-09-12T14:01:21.514Z,3.60
2022-09-12T14:04:14.534Z,3.97
2022-09-12T14:06:55.487Z,3.78
2022-09-12T14:09:29.211Z,2.95
2022-09-12T14:11:58.698Z,3.70
2022-09-12T14:14:42.159Z,3.40
2022-09-12T14:17:31.825Z,3.47
2022-09-12T14:20:06.070Z,3.22
2022-09-12T14:22:34.681Z,4.03
2022-09-12T14:25:02.065Z,3.97
2022-09-12T14:27:45.698Z,3.90
2022-09-12T14:30:26.169Z,4.35
2022-09-12T14:33:11.865Z,3.65
2022-09-12T14:35:43.541Z,3.25
2022-09-12T14:38:15.879Z,3.80
2022-09-12T14:40:49.247Z,3.67
2022-09-12T14:43:24.733Z,3.20
2022-09-12T14:45:59.468Z,3.60
2022-09-12T14:48:34.178Z,2.70
2022-09-12T14:51:04.903Z,2.75
2022-09-12T14:53:36.950Z,2.70
2022-09-12T14:56:11.389Z,2.70
2022-09-12T14:58:42.753Z,3.10
2022-09-12T15:01:12.954Z,3.20
2022-09-12T15:03:49.705Z,3.20
2022-09-12T15:06:34.086Z,3.22
2022-09-12T15:09:06.060Z,3.08
2022-09-12T15:11:33.800Z,3.20
2022-09-12T15:14:13.608Z,3.58
2022-09-12T15:16:40.790Z,3.47
2022-09-12T15:19:08.081Z,3.15
2022-09-12T15:21:36.155Z,3.38
2022-09-12T15:24:04.114Z,3.28
2022-09-12T15:26:32.312Z,3.60
2022-09-12T15:28:59.246Z,3.35
2022-09-12T15:31:35.931Z,3.60
2022-09-12T15:34:05.929Z,3.50
2022-09-12T15:36:41.780Z,3.40
2022-09-12T15:39:10.575Z,3.08
2022-09-12T15:41:39.519Z,3.35
2022-09-12T15:44:08.225Z,3.33
2022-09-12T15:46:40.686Z,3.22
2022-09-12T15:49:07.677Z,4.15
2022-09-12T15:51:34.838Z,3.70
2022-09-12T15:54:04.705Z,3.30
2022-09-12T15:56:39.668Z,3.50
2022-09-12T15:59:08.982Z,3.38
2022-09-12T16:01:39.219Z,3.22
2022-09-12T16:04:20.925Z,3.50
2022-09-12T16:06:47.608Z,3.85
2022-09-12T16:09:16.861Z,3.63
2022-09-12T16:11:45.937Z,3.90
2022-09-12T16:14:17.673Z,3.92
2022-09-12T16:16:44.915Z,3.88
2022-09-12T16:19:12.431Z,3.70
2022-09-12T16:21:39.718Z,3.38
2022-09-12T16:24:06.533Z,3.38
2022-09-12T16:26:36.589Z,3.67
2022-09-12T16:29:06.067Z,3.38
2022-09-12T16:31:33.422Z,3.40
2022-09-12T16:34:00.397Z,3.15
2022-09-12T16:38:54.467Z,3.30
2022-09-12T16:41:25.447Z,3.10
2022-09-12T16:43:52.860Z,3.10
2022-09-12T16:46:24.831Z,3.63
2022-09-12T16:48:54.134Z,3.70
2022-09-12T16:51:24.508Z,3.72
2022-09-12T16:53:51.896Z,3.30
2022-09-12T16:56:18.614Z,3.42
2022-09-12T17:01:24.624Z,3.40
2022-09-12T17:03:57.139Z,3.72
2022-09-12T17:06:28.060Z,3.53
2022-09-12T17:09:00.692Z,3.40
2022-09-12T17:11:36.827Z,3.35
2022-09-12T17:14:08.643Z,3.67
2022-09-12T17:16:38.495Z,4.20
2022-09-12T17:19:06.067Z,4.10
2022-09-12T17:21:35.758Z,3.95
2022-09-12T17:24:04.150Z,3.38
2022-09-12T17:26:31.160Z,3.53
2022-09-12T17:28:58.031Z,3.60
2022-09-12T17:33:50.841Z,4.18
2022-09-12T17:36:19.450Z,4.47
2022-09-12T17:38:47.351Z,4.25
2022-09-12T17:41:16.141Z,4.38
2022-09-12T17:43:51.051Z,4.60
2022-09-12T17:46:19.377Z,4.07
2022-09-12T17:48:51.544Z,4.10
2022-09-12T17:51:18.354Z,4.53
2022-09-12T17:53:45.570Z,4.38
2022-09-12T17:56:14.709Z,4.28
2022-09-12T17:58:41.699Z,4.03
2022-09-12T18:01:33.502Z,4.00
2022-09-12T18:04:07.108Z,4.00
2022-09-12T18:06:33.915Z,4.38
2022-09-12T18:09:04.031Z,3.90
2022-09-12T18:11:31.111Z,4.28
2022-09-12T18:14:03.671Z,4.40
2022-09-12T18:16:34.694Z,4.60
2022-09-12T18:19:01.856Z,4.50
2022-09-12T18:21:29.980Z,4.53
2022-09-12T18:24:00.034Z,5.10
2022-09-12T18:26:29.272Z,4.53
2022-09-12T18:28:57.125Z,4.88
2022-09-12T18:31:27.511Z,4.55
2022-09-12T18:34:00.989Z,5.30
2022-09-12T18:36:28.490Z,4.78
2022-09-12T18:38:57.379Z,5.10
2022-09-12T18:41:24.938Z,5.55
2022-09-12T18:43:57.368Z,5.80
2022-09-12T18:46:27.990Z,5.43
2022-09-12T18:48:59.357Z,6.15
2022-09-12T18:51:33.146Z,5.90
2022-09-12T18:54:09.357Z,5.70
2022-09-12T18:56:39.400Z,5.63
2022-09-12T18:59:07.008Z,5.90
2022-09-12T19:01:38.494Z,5.93
2022-09-12T19:04:07.524Z,5.82
2022-09-12T19:06:37.301Z,5.85
2022-09-12T19:09:07.964Z,5.53
2022-09-12T19:11:37.133Z,5.65
2022-09-12T19:14:04.665Z,6.22
2022-09-12T19:16:32.643Z,5.50
2022-09-12T19:19:01.120Z,6.25
2022-09-12T19:21:29.686Z,5.45
2022-09-12T19:23:58.402Z,6.03
2022-09-12T19:26:26.294Z,5.60
2022-09-12T19:28:54.058Z,5.57
2022-09-12T19:31:21.732Z,5.60
2022-09-12T19:33:48.934Z,5.93
2022-09-12T19:36:41.309Z,5.75
2022-09-12T19:39:07.264Z,5.45
2022-09-12T19:41:34.489Z,5.82
2022-09-12T19:44:05.529Z,6.22
2022-09-12T19:46:32.211Z,4.93
2022-09-12T19:49:00.969Z,5.28
2022-09-12T19:51:28.119Z,5.85
2022-09-12T19:53:57.557Z,6.10
2022-09-12T19:56:23.995Z,6.95
2022-09-12T19:58:55.804Z,6.82
2022-09-12T20:01:25.708Z,6.85
2022-09-12T20:03:53.702Z,7.30
2022-09-12T20:06:26.929Z,7.63
2022-09-12T20:08:54.100Z,7.97
2022-09-12T20:11:23.288Z,7.18
2022-09-12T20:13:50.144Z,8.00
2022-09-12T20:16:22.082Z,7.90
2022-09-12T20:18:56.531Z,8.43
2022-09-12T20:21:31.415Z,7.63
2022-09-12T20:24:08.244Z,7.53
2022-09-12T20:26:36.518Z,7.60
2022-09-12T20:29:07.322Z,8.02
2022-09-12T20:31:36.629Z,8.27
2022-09-12T20:34:04.223Z,7.80
2022-09-12T20:36:30.676Z,8.75
2022-09-12T20:38:59.979Z,9.25
2022-09-12T20:41:33.695Z,8.90
2022-09-12T20:44:00.270Z,10.13
2022-09-12T20:46:28.405Z,9.20
2022-09-12T20:48:55.062Z,9.52
2022-09-12T20:51:22.549Z,9.82
2022-09-12T20:53:53.889Z,9.23
2022-09-12T20:56:21.116Z,9.25
2022-09-12T20:58:47.640Z,9.82
2022-09-12T21:01:15.816Z,9.32
2022-09-12T21:03:44.160Z,9.00
2022-09-12T21:06:16.859Z,9.20
2022-09-12T21:08:43.636Z,9.32
2022-09-12T21:11:17.250Z,9.30
2022-09-12T21:13:43.767Z,9.55
2022-09-12T21:16:15.990Z,9.63
2022-09-12T21:18:42.867Z,9.07
2022-09-12T21:21:14.274Z,9.70
2022-09-12T21:23:41.260Z,10.10
2022-09-12T21:26:08.213Z,10.38
2022-09-12T21:28:34.720Z,10.70
2022-09-12T21:31:03.749Z,9.70
2022-09-12T21:33:30.459Z,10.27
2022-09-12T21:36:05.194Z,10.20
2022-09-12T21:38:35.066Z,9.80
2022-09-12T21:41:09.699Z,9.57
2022-09-12T21:43:36.517Z,9.95
2022-09-12T21:46:03.882Z,9.80
2022-09-12T21:48:30.934Z,10.82
2022-09-12T21:50:57.457Z,10.90
2022-09-12T21:53:24.130Z,11.02
2022-09-12T21:55:50.496Z,10.75
2022-09-12T21:58:17.195Z,10.40
2022-09-12T22:00:44.308Z,11.25
2022-09-12T22:05:40.224Z,11.93
2022-09-12T22:08:07.947Z,11.15
2022-09-12T22:10:34.465Z,12.63
2022-09-12T22:13:03.646Z,12.85
2022-09-12T22:15:40.640Z,12.63
2022-09-12T22:18:07.628Z,12.43
2022-09-12T22:20:34.006Z,12.18
2022-09-12T22:23:23.823Z,12.68
2022-09-12T22:25:54.704Z,12.30
2022-09-12T22:28:21.299Z,13.02
2022-09-12T22:30:48.522Z,13.50
2022-09-12T22:33:14.998Z,12.77
2022-09-12T22:35:42.331Z,13.40
2022-09-12T22:38:09.041Z,12.88
2022-09-12T22:40:35.492Z,12.52
2022-09-12T22:43:04.841Z,13.75
2022-09-12T22:45:31.352Z,13.57
2022-09-12T22:48:00.822Z,14.07
2022-09-12T22:50:30.948Z,14.70
2022-09-12T22:52:57.311Z,13.70
2022-09-12T22:55:24.411Z,14.23
2022-09-12T23:00:18.350Z,14.00
2022-09-12T23:02:44.867Z,13.70
2022-09-12T23:05:11.605Z,13.88
2022-09-12T23:07:38.041Z,15.07
2022-09-12T23:10:04.868Z,16.00
2022-09-12T23:12:32.192Z,15.18
2022-09-12T23:14:58.604Z,15.43
2022-09-12T23:17:25.005Z,15.45
2022-09-12T23:19:51.599Z,17.30
2022-09-12T23:22:18.086Z,15.27
2022-09-12T23:24:46.917Z,16.33
2022-09-12T23:27:13.374Z,15.40
2022-09-12T23:29:39.815Z,14.93
2022-09-12T23:32:09.357Z,15.77
2022-09-12T23:34:36.276Z,15.43
2022-09-12T23:37:05.666Z,15.32
2022-09-12T23:39:32.105Z,15.32
2022-09-12T23:41:58.495Z,15.50
2022-09-12T23:44:25.150Z,14.80
2022-09-12T23:46:51.496Z,16.20
2022-09-12T23:49:17.868Z,16.60
2022-09-12T23:51:44.756Z,15.68
2022-09-12T23:54:11.179Z,16.80
2022-09-12T23:56:37.582Z,17.92
2022-09-12T23:59:04.217Z,17.48
